createdAt,value
2019-04-30T00:00:22.207Z,21.50
2019-04-30T00:01:22.175Z,22.20
2019-04-30T00:02:22.166Z,21.90
2019-04-30T00:03:22.158Z,22.10
2019-04-30T00:04:22.145Z,21.80
2019-04-30T00:05:22.134Z,22.10
2019-04-30T00:06:22.153Z,22.00
2019-04-30T00:07:22.112Z,22.10
2019-04-30T00:08:22.101Z,22.20
2019-04-30T00:09:22.095Z,22.00
2019-04-30T00:10:22.076Z,22.30
2019-04-30T00:11:22.111Z,22.10
2019-04-30T00:12:22.059Z,22.20
2019-04-30T00:13:22.054Z,22.50
2019-04-30T00:14:22.034Z,22.50
2019-04-30T00:15:22.024Z,22.70
2019-04-30T00:16:22.019Z,22.60
2019-04-30T00:17:22.013Z,22.80
2019-04-30T00:18:21.999Z,22.50
2019-04-30T00:19:21.979Z,22.40
2019-04-30T00:20:21.980Z,22.10
2019-04-30T00:21:21.957Z,22.60
2019-04-30T00:22:33.264Z,22.40
2019-04-30T00:23:29.317Z,22.30
2019-04-30T00:24:22.933Z,22.20
2019-04-30T00:25:24.937Z,22.60
2019-04-30T00:26:22.905Z,22.40
2019-04-30T00:27:28.331Z,22.60
2019-04-30T00:28:22.899Z,22.40
2019-04-30T00:29:27.080Z,22.40
2019-04-30T00:30:22.865Z,22.30
2019-04-30T00:31:23.734Z,22.80
2019-04-30T00:32:22.843Z,22.20
2019-04-30T00:33:23.146Z,23.10
2019-04-30T00:34:21.822Z,23.30
2019-04-30T00:35:21.809Z,23.60
2019-04-30T00:36:21.801Z,22.90
2019-04-30T00:37:21.789Z,22.90
2019-04-30T00:38:21.813Z,22.20
2019-04-30T00:39:21.773Z,22.50
2019-04-30T00:40:26.085Z,23.70
2019-04-30T00:41:22.748Z,22.90
2019-04-30T00:42:24.160Z,23.40
2019-04-30T00:43:22.740Z,23.00
2019-04-30T00:44:24.775Z,22.90
2019-04-30T00:45:22.705Z,22.70
2019-04-30T00:46:25.038Z,22.80
2019-04-30T00:47:22.683Z,22.70
2019-04-30T00:48:29.512Z,22.80
2019-04-30T00:49:24.135Z,21.90
2019-04-30T00:50:21.656Z,22.50
2019-04-30T00:51:21.666Z,22.70
2019-04-30T00:52:21.636Z,22.60
2019-04-30T00:53:21.623Z,22.60
2019-04-30T00:54:22.559Z,23.30
2019-04-30T00:55:22.610Z,23.20
2019-04-30T00:56:26.468Z,22.60
2019-04-30T00:57:22.579Z,22.50
2019-04-30T00:58:28.824Z,23.00
2019-04-30T00:59:22.585Z,22.70
2019-04-30T01:00:28.035Z,22.40
2019-04-30T01:01:22.527Z,23.10
2019-04-30T01:02:29.182Z,22.60
2019-04-30T01:03:22.506Z,23.10
2019-04-30T01:04:24.556Z,22.30
2019-04-30T01:05:22.503Z,23.10
2019-04-30T01:06:24.659Z,22.80
2019-04-30T01:07:22.468Z,22.70
2019-04-30T01:08:27.262Z,22.50
2019-04-30T01:09:22.444Z,22.50
2019-04-30T01:10:24.676Z,23.20
2019-04-30T01:11:22.459Z,22.70
2019-04-30T01:12:27.658Z,22.90
2019-04-30T01:13:22.403Z,22.50
2019-04-30T01:14:23.266Z,22.70
2019-04-30T01:15:22.377Z,22.60
2019-04-30T01:16:23.621Z,22.90
2019-04-30T01:17:22.368Z,23.30
2019-04-30T01:18:23.554Z,22.80
2019-04-30T01:19:30.142Z,23.00
2019-04-30T01:20:24.181Z,22.40
2019-04-30T01:21:22.312Z,25.20
2019-04-30T01:22:28.231Z,24.90
2019-04-30T01:23:22.291Z,24.60
2019-04-30T01:24:23.441Z,25.20
2019-04-30T01:25:22.282Z,25.50
2019-04-30T01:26:22.891Z,24.80
2019-04-30T01:27:21.256Z,25.00
2019-04-30T01:28:24.233Z,25.00
2019-04-30T01:29:21.236Z,24.90
2019-04-30T01:30:22.824Z,25.40
2019-04-30T01:31:21.230Z,24.50
2019-04-30T01:32:21.339Z,24.90
2019-04-30T01:33:21.185Z,24.80
2019-04-30T01:34:21.178Z,25.50
2019-04-30T01:35:23.964Z,25.10
2019-04-30T01:36:22.188Z,24.90
2019-04-30T01:37:28.418Z,25.20
2019-04-30T01:38:22.133Z,24.90
2019-04-30T01:39:23.645Z,25.20
2019-04-30T01:40:22.116Z,25.30
2019-04-30T01:41:27.358Z,25.20
2019-04-30T01:42:22.104Z,25.10
2019-04-30T01:43:30.498Z,25.30
2019-04-30T01:44:22.067Z,24.70
2019-04-30T01:45:23.022Z,24.90
2019-04-30T01:46:22.047Z,25.30
2019-04-30T01:47:27.482Z,25.60
2019-04-30T01:48:22.027Z,25.40
2019-04-30T01:49:25.789Z,25.60
2019-04-30T01:50:22.007Z,24.90
2019-04-30T01:51:21.857Z,25.60
2019-04-30T01:52:20.985Z,25.60
2019-04-30T01:53:20.983Z,25.20
2019-04-30T01:54:24.203Z,24.70
2019-04-30T01:55:20.948Z,25.10
2019-04-30T01:56:20.933Z,24.80
2019-04-30T01:57:20.922Z,25.00
2019-04-30T01:58:20.920Z,25.00
2019-04-30T01:59:20.915Z,25.10
2019-04-30T02:00:20.894Z,24.60
2019-04-30T02:01:20.887Z,24.80
2019-04-30T02:02:20.876Z,24.60
2019-04-30T02:03:20.864Z,24.70
2019-04-30T02:04:20.865Z,24.40
2019-04-30T02:05:20.841Z,25.40
2019-04-30T02:06:20.833Z,24.70
2019-04-30T02:07:20.825Z,24.30
2019-04-30T02:08:20.803Z,24.10
2019-04-30T02:09:20.815Z,24.80
2019-04-30T02:10:20.787Z,24.90
2019-04-30T02:11:20.775Z,24.70
2019-04-30T02:12:21.882Z,24.80
2019-04-30T02:13:20.751Z,24.20
2019-04-30T02:14:20.741Z,24.30
2019-04-30T02:15:20.738Z,24.30
2019-04-30T02:16:21.136Z,24.90
2019-04-30T02:17:20.710Z,24.60
2019-04-30T02:18:20.695Z,24.80
2019-04-30T02:19:20.683Z,24.30
2019-04-30T02:20:20.690Z,24.50
2019-04-30T02:21:20.666Z,24.70
2019-04-30T02:22:20.663Z,24.90
2019-04-30T02:23:20.649Z,24.90
2019-04-30T02:24:20.638Z,25.30
2019-04-30T02:25:20.618Z,24.80
2019-04-30T02:26:20.622Z,24.80
2019-04-30T02:27:21.679Z,25.40
2019-04-30T02:28:20.585Z,25.20
2019-04-30T02:29:20.574Z,24.70
2019-04-30T02:30:21.085Z,24.60
2019-04-30T02:31:22.956Z,24.60
2019-04-30T02:32:20.967Z,24.40
2019-04-30T02:33:20.534Z,24.70
2019-04-30T02:34:22.249Z,24.40
2019-04-30T02:35:20.517Z,25.00
2019-04-30T02:36:20.544Z,24.40
2019-04-30T02:37:21.139Z,25.00
2019-04-30T02:38:20.536Z,24.70
2019-04-30T02:39:20.526Z,24.40
2019-04-30T02:40:20.471Z,25.00
2019-04-30T02:41:20.449Z,24.70
2019-04-30T02:42:20.547Z,24.90
2019-04-30T02:43:20.515Z,25.20
2019-04-30T02:44:20.411Z,24.80
2019-04-30T02:45:20.408Z,24.90
2019-04-30T02:46:20.397Z,25.60
2019-04-30T02:47:20.493Z,24.90
2019-04-30T02:48:20.378Z,25.10
2019-04-30T02:49:20.697Z,24.90
2019-04-30T02:50:22.584Z,24.90
2019-04-30T02:51:22.862Z,25.50
2019-04-30T02:52:20.325Z,25.10
2019-04-30T02:53:20.330Z,25.10
2019-04-30T02:54:24.154Z,25.10
2019-04-30T02:55:20.292Z,25.20
2019-04-30T02:56:20.641Z,24.50
2019-04-30T02:57:23.269Z,24.80
2019-04-30T02:58:21.123Z,25.30
2019-04-30T02:59:20.444Z,25.10
2019-04-30T03:00:20.982Z,24.80
2019-04-30T03:01:20.597Z,25.20
2019-04-30T03:02:20.218Z,25.30
2019-04-30T03:03:20.439Z,25.30
2019-04-30T03:04:20.205Z,25.10
2019-04-30T03:05:20.478Z,25.00
2019-04-30T03:06:23.566Z,24.80
2019-04-30T03:07:20.165Z,25.20
2019-04-30T03:08:20.153Z,25.50
2019-04-30T03:09:20.510Z,25.10
2019-04-30T03:10:20.223Z,24.70
2019-04-30T03:11:20.925Z,25.00
2019-04-30T03:12:20.448Z,24.40
2019-04-30T03:13:20.232Z,24.80
2019-04-30T03:14:20.786Z,24.90
2019-04-30T03:15:22.878Z,24.30
2019-04-30T03:16:20.804Z,24.50
2019-04-30T03:17:20.965Z,24.40
2019-04-30T03:18:22.993Z,24.60
2019-04-30T03:19:20.038Z,24.90
2019-04-30T03:20:30.964Z,24.30
2019-04-30T03:21:21.049Z,25.00
2019-04-30T03:22:20.421Z,24.40
2019-04-30T03:23:20.782Z,24.10
2019-04-30T03:24:20.344Z,24.40
2019-04-30T03:25:19.969Z,24.70
2019-04-30T03:26:20.150Z,24.10
2019-04-30T03:27:21.070Z,24.60
2019-04-30T03:28:20.359Z,24.60
2019-04-30T03:29:23.776Z,24.30
2019-04-30T03:30:21.737Z,25.00
2019-04-30T03:31:22.468Z,24.50
2019-04-30T03:32:22.369Z,24.50
2019-04-30T03:33:22.879Z,24.70
2019-04-30T03:34:25.639Z,24.90
2019-04-30T03:35:22.816Z,24.40
2019-04-30T03:36:21.685Z,24.20
2019-04-30T03:37:19.934Z,24.20
2019-04-30T03:38:20.392Z,24.80
2019-04-30T03:39:20.069Z,24.80
2019-04-30T03:40:20.286Z,24.10
2019-04-30T03:41:20.074Z,25.00
2019-04-30T03:42:20.091Z,24.80
2019-04-30T03:43:20.190Z,24.00
2019-04-30T03:44:25.462Z,24.20
2019-04-30T03:45:20.751Z,24.20
2019-04-30T03:46:19.737Z,24.30
2019-04-30T03:47:20.356Z,24.50
2019-04-30T03:48:20.166Z,25.00
2019-04-30T03:49:20.433Z,25.30
2019-04-30T03:50:19.992Z,24.60
2019-04-30T03:51:20.009Z,25.30
2019-04-30T03:52:20.014Z,24.70
2019-04-30T03:53:20.326Z,25.30
2019-04-30T03:54:19.700Z,25.60
2019-04-30T03:55:20.562Z,24.80
2019-04-30T03:56:22.783Z,24.90
2019-04-30T03:57:20.417Z,24.60
2019-04-30T03:58:21.317Z,25.20
2019-04-30T03:59:20.056Z,24.80
2019-04-30T04:00:20.380Z,25.40
2019-04-30T04:01:19.826Z,25.40
2019-04-30T04:02:20.802Z,25.60
2019-04-30T04:03:20.073Z,25.00
2019-04-30T04:04:20.161Z,24.80
2019-04-30T04:05:20.203Z,25.10
2019-04-30T04:06:21.538Z,25.10
2019-04-30T04:07:20.276Z,24.40
2019-04-30T04:08:19.694Z,24.80
2019-04-30T04:09:22.160Z,24.60
2019-04-30T04:10:19.704Z,24.40
2019-04-30T04:11:19.993Z,24.10
2019-04-30T04:12:20.449Z,24.50
2019-04-30T04:13:30.084Z,24.90
2019-04-30T04:14:19.874Z,24.80
2019-04-30T04:15:20.043Z,24.80
2019-04-30T04:16:19.629Z,24.70
2019-04-30T04:17:20.208Z,25.00
2019-04-30T04:18:20.224Z,24.80
2019-04-30T04:19:19.725Z,24.90
2019-04-30T04:20:20.363Z,24.80
2019-04-30T04:21:20.704Z,24.90
2019-04-30T04:22:20.679Z,24.70
2019-04-30T04:23:19.487Z,25.10
2019-04-30T04:24:20.359Z,24.30
2019-04-30T04:25:20.509Z,24.30
2019-04-30T04:26:20.247Z,24.40
2019-04-30T04:27:19.756Z,24.60
2019-04-30T04:28:20.296Z,24.90
2019-04-30T04:29:19.767Z,24.50
2019-04-30T04:30:20.399Z,24.90
2019-04-30T04:31:19.543Z,24.80
2019-04-30T04:32:23.559Z,25.10
2019-04-30T04:33:19.940Z,25.00
2019-04-30T04:34:19.841Z,25.40
2019-04-30T04:35:19.936Z,24.70
2019-04-30T04:36:20.000Z,24.70
2019-04-30T04:37:20.217Z,24.60
2019-04-30T04:38:20.386Z,24.50
2019-04-30T04:39:20.215Z,24.90
2019-04-30T04:40:21.126Z,24.40
2019-04-30T04:41:19.793Z,24.50
2019-04-30T04:42:19.693Z,24.60
2019-04-30T04:43:20.204Z,24.80
2019-04-30T04:44:20.443Z,24.80
2019-04-30T04:45:19.901Z,23.50
2019-04-30T04:46:20.499Z,22.20
2019-04-30T04:47:20.237Z,22.20
2019-04-30T04:48:19.802Z,23.20
2019-04-30T04:49:20.595Z,22.40
2019-04-30T04:50:20.052Z,22.50
2019-04-30T04:51:33.409Z,22.10
2019-04-30T04:52:21.662Z,22.10
2019-04-30T04:53:19.624Z,22.10
2019-04-30T04:54:20.190Z,22.90
2019-04-30T04:55:21.772Z,22.10
2019-04-30T04:56:19.230Z,22.60
2019-04-30T04:57:22.362Z,22.60
2019-04-30T04:58:21.479Z,22.40
2019-04-30T04:59:20.143Z,22.40
2019-04-30T05:00:19.463Z,22.50
2019-04-30T05:01:20.348Z,22.50
2019-04-30T05:02:19.531Z,22.60
2019-04-30T05:03:20.139Z,22.60
2019-04-30T05:04:20.018Z,22.50
2019-04-30T05:05:19.508Z,22.70
2019-04-30T05:06:21.727Z,21.90
2019-04-30T05:07:19.654Z,22.10
2019-04-30T05:08:18.842Z,22.40
2019-04-30T05:09:19.483Z,23.00
2019-04-30T05:10:19.321Z,22.40
2019-04-30T05:11:19.305Z,22.20
2019-04-30T05:12:18.803Z,22.10
2019-04-30T05:13:19.212Z,22.10
2019-04-30T05:14:19.126Z,22.00
2019-04-30T05:15:19.450Z,21.90
2019-04-30T05:16:19.186Z,22.40
2019-04-30T05:17:19.516Z,21.90
2019-04-30T05:18:19.148Z,22.00
2019-04-30T05:19:18.816Z,21.90
2019-04-30T05:20:19.518Z,22.40
2019-04-30T05:21:18.940Z,21.90
2019-04-30T05:22:19.107Z,22.20
2019-04-30T05:23:21.550Z,22.20
2019-04-30T05:24:19.022Z,22.40
2019-04-30T05:25:18.885Z,22.20
2019-04-30T05:26:19.073Z,22.50
2019-04-30T05:27:19.801Z,22.40
2019-04-30T05:28:19.009Z,22.90
2019-04-30T05:29:19.042Z,22.20
2019-04-30T05:30:19.903Z,22.20
2019-04-30T05:31:21.004Z,21.70
2019-04-30T05:32:19.667Z,21.80
2019-04-30T05:33:18.749Z,21.90
2019-04-30T05:34:18.979Z,22.10
2019-04-30T05:35:18.680Z,22.00
2019-04-30T05:36:19.175Z,22.00
2019-04-30T05:37:18.779Z,22.40
2019-04-30T05:38:18.973Z,22.10
2019-04-30T05:39:18.917Z,22.00
2019-04-30T05:40:18.982Z,22.10
2019-04-30T05:41:19.289Z,22.20
2019-04-30T05:42:18.568Z,22.30
2019-04-30T05:43:19.181Z,21.90
2019-04-30T05:44:18.618Z,21.80
2019-04-30T05:45:19.209Z,22.10
2019-04-30T05:46:19.600Z,22.10
2019-04-30T05:47:19.549Z,21.30
2019-04-30T05:48:18.667Z,21.90
2019-04-30T05:49:18.874Z,22.00
2019-04-30T05:50:19.949Z,21.90
2019-04-30T05:51:19.396Z,22.20
2019-04-30T05:52:19.961Z,21.80
2019-04-30T05:53:19.049Z,21.50
2019-04-30T05:54:19.009Z,21.70
2019-04-30T05:55:19.775Z,22.20
2019-04-30T05:56:19.302Z,21.70
2019-04-30T05:57:19.726Z,22.00
2019-04-30T05:58:19.708Z,22.00
2019-04-30T05:59:20.451Z,22.50
2019-04-30T06:00:19.078Z,21.50
2019-04-30T06:01:19.617Z,21.40
2019-04-30T06:02:19.439Z,22.00
2019-04-30T06:03:27.558Z,21.80
2019-04-30T06:04:19.438Z,21.60
2019-04-30T06:05:18.766Z,21.80
2019-04-30T06:06:19.336Z,21.80
2019-04-30T06:07:18.986Z,21.60
2019-04-30T06:08:19.246Z,21.80
2019-04-30T06:09:30.735Z,21.90
2019-04-30T06:10:19.377Z,21.70
2019-04-30T06:11:19.268Z,22.10
2019-04-30T06:12:20.107Z,22.00
2019-04-30T06:13:19.045Z,21.70
2019-04-30T06:14:18.585Z,21.70
2019-04-30T06:15:19.381Z,21.50
2019-04-30T06:16:18.840Z,21.50
2019-04-30T06:17:19.721Z,21.70
2019-04-30T06:18:18.556Z,21.80
2019-04-30T06:19:19.579Z,21.40
2019-04-30T06:20:20.848Z,21.70
2019-04-30T06:21:21.328Z,21.20
2019-04-30T06:22:19.078Z,21.40
2019-04-30T06:23:19.478Z,21.00
2019-04-30T06:24:18.821Z,21.40
2019-04-30T06:25:28.303Z,21.00
2019-04-30T06:26:20.760Z,21.50
2019-04-30T06:27:19.120Z,21.30
2019-04-30T06:28:19.595Z,21.00
2019-04-30T06:29:18.976Z,21.10
2019-04-30T06:30:19.847Z,21.10
2019-04-30T06:31:22.311Z,21.00
2019-04-30T06:32:18.923Z,21.40
2019-04-30T06:33:19.262Z,21.50
2019-04-30T06:34:19.720Z,20.60
2019-04-30T06:35:19.345Z,20.80
2019-04-30T06:36:19.081Z,21.50
2019-04-30T06:37:19.468Z,21.10
2019-04-30T06:38:18.516Z,21.50
2019-04-30T06:39:18.769Z,21.20
2019-04-30T06:40:19.590Z,21.40
2019-04-30T06:41:19.686Z,21.50
2019-04-30T06:42:19.467Z,21.30
2019-04-30T06:43:19.081Z,20.70
2019-04-30T06:44:19.470Z,20.90
2019-04-30T06:45:19.148Z,21.40
2019-04-30T06:46:18.723Z,20.50
2019-04-30T06:47:20.042Z,21.00
2019-04-30T06:48:19.904Z,20.70
2019-04-30T06:49:19.419Z,20.50
2019-04-30T06:50:19.418Z,20.20
2019-04-30T06:51:18.949Z,20.30
2019-04-30T06:52:21.471Z,20.30
2019-04-30T06:53:19.223Z,21.00
2019-04-30T06:54:19.149Z,20.60
2019-04-30T06:55:19.242Z,20.50
2019-04-30T06:56:18.913Z,20.70
2019-04-30T06:57:19.383Z,20.40
2019-04-30T06:58:20.263Z,20.60
2019-04-30T06:59:17.639Z,21.30
2019-04-30T07:00:19.431Z,20.80
2019-04-30T07:01:19.074Z,20.80
2019-04-30T07:02:19.507Z,20.60
2019-04-30T07:03:19.143Z,20.20
2019-04-30T07:04:19.374Z,20.50
2019-04-30T07:05:18.611Z,20.30
2019-04-30T07:06:27.488Z,20.50
2019-04-30T07:07:22.689Z,20.50
2019-04-30T07:08:19.034Z,20.60
2019-04-30T07:09:17.512Z,20.40
2019-04-30T07:10:18.656Z,20.90
2019-04-30T07:11:19.391Z,20.60
2019-04-30T07:12:27.050Z,20.60
2019-04-30T07:13:18.831Z,20.60
2019-04-30T07:14:19.446Z,20.40
2019-04-30T07:15:19.532Z,21.00
2019-04-30T07:16:19.001Z,21.50
2019-04-30T07:17:19.433Z,21.00
2019-04-30T07:18:18.983Z,20.90
2019-04-30T07:19:29.985Z,20.60
2019-04-30T07:20:19.116Z,20.60
2019-04-30T07:21:19.555Z,20.30
2019-04-30T07:22:20.700Z,21.00
2019-04-30T07:23:18.892Z,20.40
2019-04-30T07:24:20.789Z,20.70
2019-04-30T07:25:19.336Z,20.80
2019-04-30T07:26:19.788Z,20.70
2019-04-30T07:27:23.776Z,20.40
2019-04-30T07:28:19.080Z,20.70
2019-04-30T07:29:19.500Z,20.70
2019-04-30T07:30:19.106Z,20.20
2019-04-30T07:31:19.242Z,20.20
2019-04-30T07:32:19.674Z,20.40
2019-04-30T07:33:20.775Z,20.60
2019-04-30T07:34:19.461Z,20.50
2019-04-30T07:35:19.334Z,20.30
2019-04-30T07:36:19.376Z,20.70
2019-04-30T07:37:24.009Z,20.20
2019-04-30T07:38:19.326Z,20.50
2019-04-30T07:39:19.086Z,20.30
2019-04-30T07:40:19.042Z,20.30
2019-04-30T07:41:18.882Z,20.40
2019-04-30T07:42:19.057Z,19.90
2019-04-30T07:43:18.879Z,20.10
2019-04-30T07:44:32.613Z,20.00
2019-04-30T07:45:19.458Z,20.20
2019-04-30T07:46:17.114Z,20.20
2019-04-30T07:47:19.546Z,20.10
2019-04-30T07:48:21.119Z,20.10
2019-04-30T07:49:20.566Z,20.10
2019-04-30T07:50:18.070Z,20.30
2019-04-30T07:51:20.351Z,20.70
2019-04-30T07:52:18.498Z,20.60
2019-04-30T07:53:18.750Z,20.00
2019-04-30T07:54:18.944Z,20.50
2019-04-30T07:55:17.029Z,20.50
2019-04-30T07:56:25.531Z,20.30
2019-04-30T07:57:19.275Z,20.90
2019-04-30T07:58:20.219Z,20.40
2019-04-30T07:59:16.974Z,20.40
2019-04-30T08:00:16.971Z,20.00
2019-04-30T08:01:19.411Z,23.40
2019-04-30T08:02:16.938Z,20.50
2019-04-30T08:03:19.955Z,20.40
2019-04-30T08:04:18.421Z,19.90
2019-04-30T08:05:16.900Z,20.30
2019-04-30T08:06:18.936Z,19.70
2019-04-30T08:07:16.937Z,20.40
2019-04-30T08:08:24.288Z,20.20
2019-04-30T08:09:19.598Z,20.20
2019-04-30T08:10:18.729Z,20.10
2019-04-30T08:11:23.808Z,19.90
2019-04-30T08:12:25.657Z,20.30
2019-04-30T08:13:20.602Z,20.30
2019-04-30T08:14:18.464Z,20.10
2019-04-30T08:15:16.794Z,20.20
2019-04-30T08:16:18.682Z,20.40
2019-04-30T08:17:18.737Z,20.20
2019-04-30T08:18:18.492Z,20.60
2019-04-30T08:19:16.743Z,20.50
2019-04-30T08:20:16.738Z,20.40
2019-04-30T08:21:18.847Z,20.50
2019-04-30T08:22:16.734Z,20.40
2019-04-30T08:23:32.818Z,20.30
2019-04-30T08:24:19.365Z,20.00
2019-04-30T08:25:18.983Z,20.20
2019-04-30T08:26:18.713Z,20.60
2019-04-30T08:27:16.664Z,20.20
2019-04-30T08:28:18.616Z,19.80
2019-04-30T08:29:16.642Z,20.40
2019-04-30T08:30:23.850Z,20.40
2019-04-30T08:31:19.381Z,20.70
2019-04-30T08:32:16.610Z,20.70
2019-04-30T08:33:16.609Z,21.00
2019-04-30T08:34:16.588Z,20.60
2019-04-30T08:35:16.584Z,20.30
2019-04-30T08:36:16.557Z,20.50
2019-04-30T08:37:18.173Z,20.60
2019-04-30T08:38:16.540Z,20.40
2019-04-30T08:39:16.526Z,20.40
2019-04-30T08:40:16.527Z,20.30
2019-04-30T08:41:16.502Z,20.60
2019-04-30T08:42:28.980Z,20.90
2019-04-30T08:43:17.481Z,20.70
2019-04-30T08:44:16.479Z,20.60
2019-04-30T08:45:16.470Z,20.60
2019-04-30T08:46:16.454Z,20.50
2019-04-30T08:47:18.787Z,20.10
2019-04-30T08:48:16.426Z,20.10
2019-04-30T08:49:18.381Z,20.20
2019-04-30T08:50:16.537Z,20.70
2019-04-30T08:51:16.512Z,20.30
2019-04-30T08:52:16.390Z,20.60
2019-04-30T08:53:26.774Z,20.70
2019-04-30T08:54:19.514Z,20.40
2019-04-30T08:55:17.106Z,20.70
2019-04-30T08:56:16.337Z,20.50
2019-04-30T08:57:16.334Z,20.60
2019-04-30T08:58:16.321Z,20.80
2019-04-30T08:59:16.306Z,20.30
2019-04-30T09:00:16.332Z,20.90
2019-04-30T09:01:16.697Z,20.30
2019-04-30T09:02:16.667Z,19.90
2019-04-30T09:03:16.270Z,20.20
2019-04-30T09:04:16.257Z,20.00
2019-04-30T09:05:16.245Z,19.80
2019-04-30T09:06:16.242Z,21.20
2019-04-30T09:07:16.232Z,20.50
2019-04-30T09:08:16.215Z,20.70
2019-04-30T09:09:16.208Z,20.80
2019-04-30T09:10:16.189Z,21.10
2019-04-30T09:11:24.651Z,20.70
2019-04-30T09:12:17.164Z,21.00
2019-04-30T09:13:16.158Z,20.50
2019-04-30T09:14:16.178Z,20.60
2019-04-30T09:15:16.141Z,20.70
2019-04-30T09:16:16.129Z,20.80
2019-04-30T09:17:16.129Z,20.70
2019-04-30T09:18:16.107Z,21.20
2019-04-30T09:19:16.107Z,21.10
2019-04-30T09:20:16.090Z,20.80
2019-04-30T09:21:16.079Z,21.10
2019-04-30T09:22:16.065Z,20.70
2019-04-30T09:23:16.092Z,20.70
2019-04-30T09:24:16.040Z,21.00
2019-04-30T09:25:16.033Z,20.80
2019-04-30T09:26:16.029Z,20.90
2019-04-30T09:27:16.007Z,20.50
2019-04-30T09:28:15.998Z,21.00
2019-04-30T09:29:15.988Z,20.90
2019-04-30T09:30:15.971Z,20.70
2019-04-30T09:31:15.969Z,20.30
2019-04-30T09:32:15.964Z,20.50
2019-04-30T09:33:15.946Z,20.40
2019-04-30T09:34:20.289Z,20.10
2019-04-30T09:35:15.917Z,20.20
2019-04-30T09:36:15.910Z,20.60
2019-04-30T09:37:15.900Z,20.20
2019-04-30T09:38:15.907Z,20.20
2019-04-30T09:39:15.875Z,20.20
2019-04-30T09:40:18.530Z,20.40
2019-04-30T09:41:16.858Z,20.70
2019-04-30T09:42:15.843Z,20.40
2019-04-30T09:43:15.854Z,20.40
2019-04-30T09:44:15.824Z,20.60
2019-04-30T09:45:15.811Z,20.60
2019-04-30T09:46:24.521Z,21.00
2019-04-30T09:47:16.793Z,20.90
2019-04-30T09:48:15.776Z,20.60
2019-04-30T09:49:15.765Z,20.40
2019-04-30T09:50:15.764Z,20.90
2019-04-30T09:51:16.236Z,20.30
2019-04-30T09:52:15.738Z,20.90
2019-04-30T09:53:15.812Z,20.90
2019-04-30T09:54:16.119Z,21.20
2019-04-30T09:55:15.704Z,21.00
2019-04-30T09:56:15.694Z,20.80
2019-04-30T09:57:15.680Z,21.30
2019-04-30T09:58:18.234Z,21.20
2019-04-30T09:59:16.671Z,20.90
2019-04-30T10:00:15.655Z,20.80
2019-04-30T10:01:15.639Z,20.60
2019-04-30T10:02:15.630Z,20.80
2019-04-30T10:03:16.273Z,20.80
2019-04-30T10:04:16.071Z,20.40
2019-04-30T10:05:17.227Z,20.60
2019-04-30T10:06:15.591Z,20.10
2019-04-30T10:07:15.581Z,20.60
2019-04-30T10:08:15.563Z,20.40
2019-04-30T10:09:15.554Z,21.00
2019-04-30T10:10:15.560Z,20.30
2019-04-30T10:11:15.561Z,20.80
2019-04-30T10:12:15.536Z,20.80
2019-04-30T10:13:15.517Z,20.90
2019-04-30T10:14:23.675Z,21.60
2019-04-30T10:15:15.491Z,22.60
2019-04-30T10:16:15.483Z,21.70
2019-04-30T10:17:15.491Z,21.70
2019-04-30T10:18:15.474Z,21.50
2019-04-30T10:19:15.452Z,21.10
2019-04-30T10:20:15.443Z,21.00
2019-04-30T10:21:15.444Z,21.20
2019-04-30T10:22:15.416Z,20.80
2019-04-30T10:23:15.434Z,21.30
2019-04-30T10:24:15.890Z,21.30
2019-04-30T10:25:15.390Z,20.90
2019-04-30T10:26:15.398Z,21.10
2019-04-30T10:27:15.382Z,21.10
2019-04-30T10:28:15.365Z,21.10
2019-04-30T10:29:15.344Z,21.10
2019-04-30T10:30:15.339Z,20.70
2019-04-30T10:31:15.324Z,21.10
2019-04-30T10:32:15.362Z,20.90
2019-04-30T10:33:15.354Z,20.90
2019-04-30T10:34:15.294Z,20.60
2019-04-30T10:35:15.290Z,20.70
2019-04-30T10:36:15.276Z,21.00
2019-04-30T10:37:15.264Z,20.70
2019-04-30T10:38:15.267Z,20.80
2019-04-30T10:39:15.282Z,21.00
2019-04-30T10:40:15.270Z,20.30
2019-04-30T10:41:15.230Z,20.80
2019-04-30T10:42:15.215Z,20.20
2019-04-30T10:43:15.200Z,21.10
2019-04-30T10:44:15.194Z,20.40
2019-04-30T10:45:15.189Z,20.80
2019-04-30T10:46:15.191Z,20.70
2019-04-30T10:47:15.163Z,20.30
2019-04-30T10:48:15.151Z,20.70
2019-04-30T10:49:15.148Z,20.90
2019-04-30T10:50:15.174Z,20.80
2019-04-30T10:51:15.114Z,20.80
2019-04-30T10:52:15.109Z,20.60
2019-04-30T10:53:15.091Z,20.90
2019-04-30T10:54:25.517Z,21.40
2019-04-30T10:55:16.085Z,21.20
2019-04-30T10:56:15.091Z,21.00
2019-04-30T10:57:15.058Z,21.00
2019-04-30T10:58:15.467Z,20.90
2019-04-30T10:59:15.044Z,20.80
2019-04-30T11:00:15.033Z,20.80
2019-04-30T11:01:15.017Z,20.90
2019-04-30T11:02:15.008Z,20.80
2019-04-30T11:03:20.045Z,20.60
2019-04-30T11:04:15.999Z,21.40
2019-04-30T11:05:14.979Z,20.80
2019-04-30T11:06:15.023Z,20.90
2019-04-30T11:07:14.992Z,20.90
2019-04-30T11:08:14.954Z,20.70
2019-04-30T11:09:14.956Z,21.10
2019-04-30T11:10:14.915Z,21.40
2019-04-30T11:11:14.904Z,21.00
2019-04-30T11:12:14.894Z,21.30
2019-04-30T11:13:14.888Z,20.70
2019-04-30T11:14:14.890Z,20.90
2019-04-30T11:15:14.866Z,21.60
2019-04-30T11:16:15.592Z,21.20
2019-04-30T11:17:15.062Z,21.30
2019-04-30T11:18:15.037Z,21.20
2019-04-30T11:19:14.991Z,21.40
2019-04-30T11:20:15.016Z,21.10
2019-04-30T11:21:14.982Z,21.30
2019-04-30T11:22:15.010Z,21.20
2019-04-30T11:23:15.338Z,21.40
2019-04-30T11:24:15.000Z,21.80
2019-04-30T11:25:14.935Z,21.40
2019-04-30T11:26:15.368Z,21.70
2019-04-30T11:27:15.418Z,21.50
2019-04-30T11:28:15.255Z,21.60
2019-04-30T11:29:14.929Z,21.50
2019-04-30T11:30:21.361Z,21.50
2019-04-30T11:31:15.967Z,21.10
2019-04-30T11:32:14.908Z,21.60
2019-04-30T11:33:14.929Z,21.30
2019-04-30T11:34:14.674Z,21.10
2019-04-30T11:35:14.661Z,21.40
2019-04-30T11:36:14.686Z,21.20
2019-04-30T11:37:14.640Z,21.40
2019-04-30T11:38:14.627Z,21.30
2019-04-30T11:39:14.613Z,21.80
2019-04-30T11:40:14.607Z,21.70
2019-04-30T11:41:14.600Z,21.80
2019-04-30T11:42:14.650Z,22.00
2019-04-30T11:43:14.575Z,22.00
2019-04-30T11:44:27.837Z,22.10
2019-04-30T11:45:15.557Z,22.30
2019-04-30T11:46:14.545Z,21.40
2019-04-30T11:47:14.550Z,21.50
2019-04-30T11:48:14.526Z,21.40
2019-04-30T11:49:14.517Z,21.80
2019-04-30T11:50:14.498Z,21.30
2019-04-30T11:51:14.514Z,21.60
2019-04-30T11:52:14.482Z,21.60
2019-04-30T11:53:25.420Z,21.60
2019-04-30T11:54:15.457Z,21.80
2019-04-30T11:55:14.452Z,21.90
2019-04-30T11:56:14.440Z,21.90
2019-04-30T11:57:14.456Z,22.10
2019-04-30T11:58:21.406Z,22.70
2019-04-30T11:59:15.419Z,22.00
2019-04-30T12:00:14.401Z,21.60
2019-04-30T12:01:14.394Z,21.90
2019-04-30T12:02:14.377Z,21.90
2019-04-30T12:03:14.381Z,21.90
2019-04-30T12:04:14.351Z,21.20
2019-04-30T12:05:14.371Z,21.00
2019-04-30T12:06:14.331Z,21.60
2019-04-30T12:07:14.322Z,21.40
2019-04-30T12:08:14.358Z,21.20
2019-04-30T12:09:14.306Z,21.60
2019-04-30T12:10:14.293Z,21.60
2019-04-30T12:11:15.370Z,21.80
2019-04-30T12:12:14.523Z,21.80
2019-04-30T12:13:14.281Z,21.50
2019-04-30T12:14:14.264Z,22.60
2019-04-30T12:15:14.249Z,22.30
2019-04-30T12:16:14.230Z,22.00
2019-04-30T12:17:14.223Z,22.70
2019-04-30T12:18:14.775Z,22.80
2019-04-30T12:19:14.224Z,22.20
2019-04-30T12:20:14.189Z,23.00
2019-04-30T12:21:14.193Z,22.30
2019-04-30T12:22:14.299Z,22.90
2019-04-30T12:23:14.179Z,22.60
2019-04-30T12:24:14.155Z,22.30
2019-04-30T12:25:14.143Z,22.60
2019-04-30T12:26:14.129Z,22.60
2019-04-30T12:27:14.120Z,22.20
2019-04-30T12:28:14.127Z,22.60
2019-04-30T12:29:14.156Z,23.00
2019-04-30T12:30:14.092Z,22.10
2019-04-30T12:31:14.073Z,22.40
2019-04-30T12:32:14.064Z,22.50
2019-04-30T12:33:14.053Z,22.50
2019-04-30T12:34:14.048Z,22.80
2019-04-30T12:35:14.054Z,22.30
2019-04-30T12:36:14.032Z,22.10
2019-04-30T12:37:14.011Z,21.60
2019-04-30T12:38:14.059Z,21.90
2019-04-30T12:39:13.993Z,22.10
2019-04-30T12:40:25.829Z,22.20
2019-04-30T12:41:15.031Z,21.60
2019-04-30T12:42:13.968Z,21.80
2019-04-30T12:43:13.967Z,21.70
2019-04-30T12:44:13.951Z,21.80
2019-04-30T12:45:13.944Z,21.80
2019-04-30T12:46:13.938Z,21.80
2019-04-30T12:47:13.925Z,22.00
2019-04-30T12:48:13.904Z,22.10
2019-04-30T12:49:13.908Z,22.50
2019-04-30T12:50:13.893Z,25.10
2019-04-30T12:51:13.887Z,29.10
2019-04-30T12:52:13.860Z,23.50